KLOR/LOR METAR and TAF weather

Enter ICAO airport designator
Station Type Date Time Source
KLOR METAR 2019/08/24 18:21 UTC NOAA

KLOR 241821Z AUTO 00000KT 10SM FEW240 SCT340 32/23 A2998 RMK AO2 SLP133


Station Type Date Time Source
KLOR Decoded METAR 2019/08/24 18:21 UTC NOAA

Station name not available
Aug 24, 2019 - 02:21 PM EDT / 2019.08.24 1821 UTC
Wind: Calm:0
Visibility: 10 mile(s):0
Sky conditions: partly cloudy
Temperature: 89 F (32 C)
Heat index: 96.8 F (36.0 C):1
Dew Point: 73 F (23 C)
Relative Humidity: 59%
Pressure (altimeter): 29.98 in. Hg (1015 hPa)
ob: KLOR 241821Z AUTO 00000KT 10SM FEW240 SCT340 32/23 A2998 RMK AO2 SLP133
cycle: 18

Station Type Date Time Source
KLOR TAF UTC NOAA

Error!

Example: see airport list